sensor_id;sensor_type;location;lat;lon;timestamp;pressure;altitude;pressure_sealevel;temperature;humidity
19594;BME280;9944;48.240;16.478;2022-12-20T00:00:22;101198.41;;;-1.49;80.41
19594;BME280;9944;48.240;16.478;2022-12-20T00:04:27;101179.28;;;-1.51;80.28
19594;BME280;9944;48.240;16.478;2022-12-20T00:08:30;101178.84;;;-1.57;79.93
19594;BME280;9944;48.240;16.478;2022-12-20T00:12:35;101172.69;;;-1.59;80.04
19594;BME280;9944;48.240;16.478;2022-12-20T00:16:38;101180.25;;;-1.63;80.30
19594;BME280;9944;48.240;16.478;2022-12-20T00:20:43;101189.59;;;-1.65;80.44
19594;BME280;9944;48.240;16.478;2022-12-20T00:24:46;101169.78;;;-1.64;80.62
19594;BME280;9944;48.240;16.478;2022-12-20T00:28:49;101173.28;;;-1.64;80.72
19594;BME280;9944;48.240;16.478;2022-12-20T00:32:52;101165.31;;;-1.67;80.58
19594;BME280;9944;48.240;16.478;2022-12-20T00:36:57;101170.69;;;-1.64;80.71
19594;BME280;9944;48.240;16.478;2022-12-20T00:41:01;101178.47;;;-1.64;80.92
19594;BME280;9944;48.240;16.478;2022-12-20T00:45:05;101178.47;;;-1.64;80.87
19594;BME280;9944;48.240;16.478;2022-12-20T00:49:08;101172.16;;;-1.67;80.89
19594;BME280;9944;48.240;16.478;2022-12-20T00:53:12;101180.25;;;-1.63;80.94
19594;BME280;9944;48.240;16.478;2022-12-20T00:57:20;101182.94;;;-1.61;80.99
19594;BME280;9944;48.240;16.478;2022-12-20T01:01:25;101182.81;;;-1.63;80.93
19594;BME280;9944;48.240;16.478;2022-12-20T01:05:28;101200.94;;;-1.63;80.89
19594;BME280;9944;48.240;16.478;2022-12-20T01:09:33;101193.06;;;-1.64;81.06
19594;BME280;9944;48.240;16.478;2022-12-20T01:13:38;101200.63;;;-1.67;81.00
19594;BME280;9944;48.240;16.478;2022-12-20T01:17:42;101189.50;;;-1.66;80.93
19594;BME280;9944;48.240;16.478;2022-12-20T01:21:45;101188.59;;;-1.67;80.97
19594;BME280;9944;48.240;16.478;2022-12-20T01:25:51;101166.09;;;-1.68;81.02
19594;BME280;9944;48.240;16.478;2022-12-20T01:29:54;101149.66;;;-1.68;81.01
19594;BME280;9944;48.240;16.478;2022-12-20T01:33:59;101144.38;;;-1.70;81.25
19594;BME280;9944;48.240;16.478;2022-12-20T01:38:02;101144.88;;;-1.75;81.06
19594;BME280;9944;48.240;16.478;2022-12-20T01:42:11;101161.28;;;-1.75;81.19
19594;BME280;9944;48.240;16.478;2022-12-20T01:46:16;101151.94;;;-1.73;81.27
19594;BME280;9944;48.240;16.478;2022-12-20T01:50:20;101156.91;;;-1.76;81.10
19594;BME280;9944;48.240;16.478;2022-12-20T01:54:26;101160.41;;;-1.75;81.34
19594;BME280;9944;48.240;16.478;2022-12-20T01:58:34;101158.69;;;-1.75;81.61
19594;BME280;9944;48.240;16.478;2022-12-20T02:02:40;101157.00;;;-1.74;81.50
19594;BME280;9944;48.240;16.478;2022-12-20T02:06:44;101149.25;;;-1.74;81.44
19594;BME280;9944;48.240;16.478;2022-12-20T02:11:02;101153.31;;;-1.78;81.35
19594;BME280;9944;48.240;16.478;2022-12-20T02:15:26;101166.16;;;-1.79;81.43
19594;BME280;9944;48.240;16.478;2022-12-20T02:19:59;101147.47;;;-1.75;81.07
19594;BME280;9944;48.240;16.478;2022-12-20T02:24:57;101137.78;;;-1.78;81.25
19594;BME280;9944;48.240;16.478;2022-12-20T02:29:20;101131.00;;;-1.76;81.58
19594;BME280;9944;48.240;16.478;2022-12-20T02:33:30;101118.38;;;-1.71;81.58
19594;BME280;9944;48.240;16.478;2022-12-20T02:37:34;101129.44;;;-1.74;81.45
19594;BME280;9944;48.240;16.478;2022-12-20T02:41:39;101116.19;;;-1.78;81.28
19594;BME280;9944;48.240;16.478;2022-12-20T02:45:44;101122.97;;;-1.80;81.34
19594;BME280;9944;48.240;16.478;2022-12-20T02:49:50;101137.78;;;-1.78;81.45
19594;BME280;9944;48.240;16.478;2022-12-20T02:53:57;101130.34;;;-1.73;81.62
19594;BME280;9944;48.240;16.478;2022-12-20T02:58:05;101119.97;;;-1.73;81.68
19594;BME280;9944;48.240;16.478;2022-12-20T03:02:11;101127.66;;;-1.75;81.67
19594;BME280;9944;48.240;16.478;2022-12-20T03:06:16;101122.47;;;-1.75;81.56
19594;BME280;9944;48.240;16.478;2022-12-20T03:10:20;101119.09;;;-1.74;81.43
19594;BME280;9944;48.240;16.478;2022-12-20T03:14:24;101129.25;;;-1.77;81.35
19594;BME280;9944;48.240;16.478;2022-12-20T03:18:30;101118.66;;;-1.80;81.43
19594;BME280;9944;48.240;16.478;2022-12-20T03:22:36;101116.28;;;-1.77;81.66
19594;BME280;9944;48.240;16.478;2022-12-20T03:26:40;101119.66;;;-1.78;81.29
19594;BME280;9944;48.240;16.478;2022-12-20T03:30:43;101116.41;;;-1.75;81.33
19594;BME280;9944;48.240;16.478;2022-12-20T03:34:47;101104.66;;;-1.70;81.44
19594;BME280;9944;48.240;16.478;2022-12-20T03:38:57;101095.00;;;-1.73;81.23
19594;BME280;9944;48.240;16.478;2022-12-20T03:43:02;101093.00;;;-1.77;81.09
19594;BME280;9944;48.240;16.478;2022-12-20T03:47:05;101080.84;;;-1.78;81.23
19594;BME280;9944;48.240;16.478;2022-12-20T03:51:10;101105.63;;;-1.82;80.82
19594;BME280;9944;48.240;16.478;2022-12-20T03:55:15;101109.91;;;-1.82;80.96
19594;BME280;9944;48.240;16.478;2022-12-20T03:59:19;101105.84;;;-1.78;81.08
19594;BME280;9944;48.240;16.478;2022-12-20T04:03:23;101105.13;;;-1.76;81.26
19594;BME280;9944;48.240;16.478;2022-12-20T04:07:27;101112.13;;;-1.75;81.08
19594;BME280;9944;48.240;16.478;2022-12-20T04:11:32;101113.72;;;-1.77;81.01
19594;BME280;9944;48.240;16.478;2022-12-20T04:15:45;101115.31;;;-1.79;80.96
19594;BME280;9944;48.240;16.478;2022-12-20T04:19:51;101122.03;;;-1.81;80.99
19594;BME280;9944;48.240;16.478;2022-12-20T04:23:55;101129.03;;;-1.80;81.04
19594;BME280;9944;48.240;16.478;2022-12-20T04:28:08;101125.44;;;-1.82;80.77
19594;BME280;9944;48.240;16.478;2022-12-20T04:32:11;101118.66;;;-1.80;81.26
19594;BME280;9944;48.240;16.478;2022-12-20T04:36:15;101116.41;;;-1.75;81.23
19594;BME280;9944;48.240;16.478;2022-12-20T04:40:18;101125.66;;;-1.79;80.93
19594;BME280;9944;48.240;16.478;2022-12-20T04:44:27;101108.31;;;-1.80;81.18
19594;BME280;9944;48.240;16.478;2022-12-20T04:48:30;101089.59;;;-1.76;80.99
19594;BME280;9944;48.240;16.478;2022-12-20T04:52:54;101085.13;;;-1.78;80.99
19594;BME280;9944;48.240;16.478;2022-12-20T04:57:15;101087.81;;;-1.77;81.13
19594;BME280;9944;48.240;16.478;2022-12-20T05:01:20;101100.44;;;-1.82;81.00
19594;BME280;9944;48.240;16.478;2022-12-20T05:05:26;101108.91;;;-1.84;80.94
19594;BME280;9944;48.240;16.478;2022-12-20T05:09:31;101088.31;;;-1.83;81.29
19594;BME280;9944;48.240;16.478;2022-12-20T05:13:35;101081.34;;;-1.84;81.17
19594;BME280;9944;48.240;16.478;2022-12-20T05:17:39;101070.88;;;-1.85;81.01
19594;BME280;9944;48.240;16.478;2022-12-20T05:21:45;101086.50;;;-1.84;81.37
19594;BME280;9944;48.240;16.478;2022-12-20T05:26:14;101080.44;;;-1.84;81.15
19594;BME280;9944;48.240;16.478;2022-12-20T05:30:22;101083.81;;;-1.85;81.31
19594;BME280;9944;48.240;16.478;2022-12-20T05:34:29;101085.63;;;-1.84;81.23
19594;BME280;9944;48.240;16.478;2022-12-20T05:38:32;101077.88;;;-1.84;81.42
19594;BME280;9944;48.240;16.478;2022-12-20T05:42:39;101064.00;;;-1.85;81.45
19594;BME280;9944;48.240;16.478;2022-12-20T05:46:42;101078.03;;;-1.81;81.40
19594;BME280;9944;48.240;16.478;2022-12-20T05:50:52;101075.44;;;-1.81;81.22
19594;BME280;9944;48.240;16.478;2022-12-20T05:55:00;101076.84;;;-1.86;81.41
19594;BME280;9944;48.240;16.478;2022-12-20T05:59:03;101076.06;;;-1.85;81.28
19594;BME280;9944;48.240;16.478;2022-12-20T06:03:07;101089.69;;;-1.88;81.50
19594;BME280;9944;48.240;16.478;2022-12-20T06:07:13;101091.69;;;-1.84;81.61
19594;BME280;9944;48.240;16.478;2022-12-20T06:11:20;101078.66;;;-1.85;81.53
19594;BME280;9944;48.240;16.478;2022-12-20T06:15:37;101070.28;;;-1.81;81.68
19594;BME280;9944;48.240;16.478;2022-12-20T06:19:40;101070.28;;;-1.81;81.61
19594;BME280;9944;48.240;16.478;2022-12-20T06:23:48;101074.78;;;-1.78;81.40
19594;BME280;9944;48.240;16.478;2022-12-20T06:27:51;101067.00;;;-1.78;81.56
19594;BME280;9944;48.240;16.478;2022-12-20T06:31:55;101068.72;;;-1.79;81.66
19594;BME280;9944;48.240;16.478;2022-12-20T06:35:58;101071.47;;;-1.76;81.67
19594;BME280;9944;48.240;16.478;2022-12-20T06:40:03;101069.50;;;-1.80;81.61
19594;BME280;9944;48.240;16.478;2022-12-20T06:44:07;101059.16;;;-1.80;81.69
19594;BME280;9944;48.240;16.478;2022-12-20T06:48:11;101067.13;;;-1.77;81.76
19594;BME280;9944;48.240;16.478;2022-12-20T06:52:16;101070.50;;;-1.78;81.75
19594;BME280;9944;48.240;16.478;2022-12-20T06:56:24;101063.66;;;-1.77;81.77
19594;BME280;9944;48.240;16.478;2022-12-20T07:00:27;101049.56;;;-1.81;81.87
19594;BME280;9944;48.240;16.478;2022-12-20T07:04:30;101051.38;;;-1.80;82.06
19594;BME280;9944;48.240;16.478;2022-12-20T07:08:34;101051.38;;;-1.80;82.15
19594;BME280;9944;48.240;16.478;2022-12-20T07:12:39;101048.78;;;-1.80;82.15
19594;BME280;9944;48.240;16.478;2022-12-20T07:16:48;101056.66;;;-1.78;82.22
19594;BME280;9944;48.240;16.478;2022-12-20T07:20:52;101066.31;;;-1.76;82.21
19594;BME280;9944;48.240;16.478;2022-12-20T07:24:55;101080.28;;;-1.74;82.19
19594;BME280;9944;48.240;16.478;2022-12-20T07:28:59;101088.22;;;-1.71;82.24
19594;BME280;9944;48.240;16.478;2022-12-20T07:33:02;101075.59;;;-1.66;82.46
19594;BME280;9944;48.240;16.478;2022-12-20T07:37:05;101076.47;;;-1.66;82.17
19594;BME280;9944;48.240;16.478;2022-12-20T07:41:11;101061.75;;;-1.67;81.68
19594;BME280;9944;48.240;16.478;2022-12-20T07:45:16;101034.88;;;-1.69;81.85
19594;BME280;9944;48.240;16.478;2022-12-20T07:49:20;101013.34;;;-1.68;81.75
19594;BME280;9944;48.240;16.478;2022-12-20T07:53:25;101030.59;;;-1.68;82.13
19594;BME280;9944;48.240;16.478;2022-12-20T07:57:33;101044.63;;;-1.65;82.12
19594;BME280;9944;48.240;16.478;2022-12-20T08:01:41;101043.84;;;-1.64;82.24
19594;BME280;9944;48.240;16.478;2022-12-20T08:05:48;101065.66;;;-1.60;82.35
19594;BME280;9944;48.240;16.478;2022-12-20T08:09:52;101078.50;;;-1.61;82.37
19594;BME280;9944;48.240;16.478;2022-12-20T08:13:56;101072.50;;;-1.60;82.26
19594;BME280;9944;48.240;16.478;2022-12-20T08:18:01;101069.03;;;-1.61;82.22
19594;BME280;9944;48.240;16.478;2022-12-20T08:22:04;101069.91;;;-1.60;82.31
19594;BME280;9944;48.240;16.478;2022-12-20T08:26:07;101072.41;;;-1.62;82.28
19594;BME280;9944;48.240;16.478;2022-12-20T08:30:11;101061.16;;;-1.63;82.04
19594;BME280;9944;48.240;16.478;2022-12-20T08:34:16;101041.44;;;-1.60;82.26
19594;BME280;9944;48.240;16.478;2022-12-20T08:38:19;101037.25;;;-1.58;82.32
19594;BME280;9944;48.240;16.478;2022-12-20T08:42:22;101047.81;;;-1.55;82.24
19594;BME280;9944;48.240;16.478;2022-12-20T08:46:25;101030.69;;;-1.53;82.15
19594;BME280;9944;48.240;16.478;2022-12-20T08:50:30;101047.81;;;-1.55;82.01
19594;BME280;9944;48.240;16.478;2022-12-20T08:54:33;101045.44;;;-1.52;82.02
19594;BME280;9944;48.240;16.478;2022-12-20T08:58:36;101031.59;;;-1.53;82.16
19594;BME280;9944;48.240;16.478;2022-12-20T09:02:40;101036.06;;;-1.50;82.37
19594;BME280;9944;48.240;16.478;2022-12-20T09:06:44;101033.25;;;-1.53;82.34
19594;BME280;9944;48.240;16.478;2022-12-20T09:10:48;101031.50;;;-1.54;82.44
19594;BME280;9944;48.240;16.478;2022-12-20T09:14:51;101027.09;;;-1.55;82.20
19594;BME280;9944;48.240;16.478;2022-12-20T09:18:55;101045.31;;;-1.54;82.25
19594;BME280;9944;48.240;16.478;2022-12-20T09:23:08;101043.81;;;-1.50;82.38
19594;BME280;9944;48.240;16.478;2022-12-20T09:27:11;101049.09;;;-1.49;82.36
19594;BME280;9944;48.240;16.478;2022-12-20T09:31:16;101017.34;;;-1.46;82.14
19594;BME280;9944;48.240;16.478;2022-12-20T09:35:19;101007.69;;;-1.49;82.08
19594;BME280;9944;48.240;16.478;2022-12-20T09:39:25;101001.63;;;-1.49;82.29
19594;BME280;9944;48.240;16.478;2022-12-20T09:43:29;101006.78;;;-1.49;82.04
19594;BME280;9944;48.240;16.478;2022-12-20T09:47:33;101001.81;;;-1.46;82.18
19594;BME280;9944;48.240;16.478;2022-12-20T09:52:02;100988.88;;;-1.46;82.21
19594;BME280;9944;48.240;16.478;2022-12-20T09:56:12;100983.06;;;-1.42;82.12
19594;BME280;9944;48.240;16.478;2022-12-20T10:00:18;101001.22;;;-1.42;82.19
19594;BME280;9944;48.240;16.478;2022-12-20T10:04:23;100989.34;;;-1.38;82.00
19594;BME280;9944;48.240;16.478;2022-12-20T10:08:40;100996.91;;;-1.41;82.26
19594;BME280;9944;48.240;16.478;2022-12-20T10:12:53;100988.25;;;-1.42;82.20
19594;BME280;9944;48.240;16.478;2022-12-20T10:17:02;100975.50;;;-1.39;82.31
19594;BME280;9944;48.240;16.478;2022-12-20T10:21:10;100982.88;;;-1.32;82.38
19594;BME280;9944;48.240;16.478;2022-12-20T10:25:20;100972.50;;;-1.32;82.25
19594;BME280;9944;48.240;16.478;2022-12-20T10:29:25;100964.22;;;-1.26;82.33
19594;BME280;9944;48.240;16.478;2022-12-20T10:33:29;100954.75;;;-1.26;82.45
19594;BME280;9944;48.240;16.478;2022-12-20T10:37:33;100937.63;;;-1.23;82.21
19594;BME280;9944;48.240;16.478;2022-12-20T10:41:47;100935.03;;;-1.23;82.11
19594;BME280;9944;48.240;16.478;2022-12-20T10:46:00;100926.34;;;-1.24;82.06
19594;BME280;9944;48.240;16.478;2022-12-20T10:50:09;100923.16;;;-1.20;82.12
19594;BME280;9944;48.240;16.478;2022-12-20T10:54:21;100918.16;;;-1.17;82.19
19594;BME280;9944;48.240;16.478;2022-12-20T10:58:32;100916.38;;;-1.18;82.13
19594;BME280;9944;48.240;16.478;2022-12-20T11:02:38;100906.91;;;-1.17;82.17
19594;BME280;9944;48.240;16.478;2022-12-20T11:06:44;100899.94;;;-1.18;81.80
19594;BME280;9944;48.240;16.478;2022-12-20T11:10:47;100884.22;;;-1.21;81.88
19594;BME280;9944;48.240;16.478;2022-12-20T11:15:06;100876.44;;;-1.21;81.92
19594;BME280;9944;48.240;16.478;2022-12-20T11:19:26;100875.34;;;-1.25;81.56
19594;BME280;9944;48.240;16.478;2022-12-20T11:23:37;100860.69;;;-1.25;81.73
19594;BME280;9944;48.240;16.478;2022-12-20T11:27:51;100865.00;;;-1.25;81.77
19594;BME280;9944;48.240;16.478;2022-12-20T11:32:01;100851.22;;;-1.24;81.77
19594;BME280;9944;48.240;16.478;2022-12-20T11:36:15;100852.22;;;-1.22;82.08
19594;BME280;9944;48.240;16.478;2022-12-20T11:40:29;100846.34;;;-1.19;81.99
19594;BME280;9944;48.240;16.478;2022-12-20T11:44:48;100851.63;;;-1.03;82.60
19594;BME280;9944;48.240;16.478;2022-12-20T11:49:26;100849.41;;;-0.97;82.33
19594;BME280;9944;48.240;16.478;2022-12-20T11:53:42;100855.66;;;-0.93;82.12
19594;BME280;9944;48.240;16.478;2022-12-20T11:57:53;100825.13;;;-0.99;81.55
19594;BME280;9944;48.240;16.478;2022-12-20T12:02:23;100803.13;;;-1.06;81.47
19594;BME280;9944;48.240;16.478;2022-12-20T12:06:30;100810.25;;;-1.16;81.28
19594;BME280;9944;48.240;16.478;2022-12-20T12:10:38;100803.28;;;-1.17;81.86
19594;BME280;9944;48.240;16.478;2022-12-20T12:14:49;100799.25;;;-1.12;81.96
19594;BME280;9944;48.240;16.478;2022-12-20T12:18:57;100796.31;;;-1.03;82.24
19594;BME280;9944;48.240;16.478;2022-12-20T12:23:06;100777.84;;;-0.95;82.36
19594;BME280;9944;48.240;16.478;2022-12-20T12:27:20;100765.94;;;-0.91;82.26
19594;BME280;9944;48.240;16.478;2022-12-20T12:31:28;100780.59;;;-0.92;82.29
19594;BME280;9944;48.240;16.478;2022-12-20T12:36:06;100771.66;;;-0.97;82.24
19594;BME280;9944;48.240;16.478;2022-12-20T12:40:31;100771.66;;;-0.97;82.27
19594;BME280;9944;48.240;16.478;2022-12-20T12:44:41;100783.47;;;-1.02;82.11
19594;BME280;9944;48.240;16.478;2022-12-20T12:48:53;100777.13;;;-1.07;82.16
19594;BME280;9944;48.240;16.478;2022-12-20T12:53:04;100781.31;;;-1.09;82.35
19594;BME280;9944;48.240;16.478;2022-12-20T12:57:11;100791.69;;;-1.09;82.52
19594;BME280;9944;48.240;16.478;2022-12-20T13:01:49;100788.91;;;-1.12;82.51
19594;BME280;9944;48.240;16.478;2022-12-20T13:05:54;100781.31;;;-1.09;82.71
19594;BME280;9944;48.240;16.478;2022-12-20T13:09:58;100776.13;;;-1.09;82.92
19594;BME280;9944;48.240;16.478;2022-12-20T13:14:16;100774.72;;;-1.04;82.99
19594;BME280;9944;48.240;16.478;2022-12-20T13:18:36;100776.66;;;-1.00;83.18
19594;BME280;9944;48.240;16.478;2022-12-20T13:27:23;100790.78;;;-0.95;83.12
19594;BME280;9944;48.240;16.478;2022-12-20T13:31:31;100795.78;;;-0.98;82.91
19594;BME280;9944;48.240;16.478;2022-12-20T13:36:00;100795.44;;;-1.04;82.76
19594;BME280;9944;48.240;16.478;2022-12-20T13:40:05;100807.75;;;-1.00;83.28
19594;BME280;9944;48.240;16.478;2022-12-20T13:44:32;100799.19;;;-0.99;83.30
19594;BME280;9944;48.240;16.478;2022-12-20T13:48:45;100769.16;;;-0.95;83.25
19594;BME280;9944;48.240;16.478;2022-12-20T13:52:53;100768.44;;;-0.93;83.28
19594;BME280;9944;48.240;16.478;2022-12-20T13:56:56;100758.25;;;-0.90;83.38
19594;BME280;9944;48.240;16.478;2022-12-20T14:01:04;100762.66;;;-0.89;83.26
19594;BME280;9944;48.240;16.478;2022-12-20T14:05:15;100765.34;;;-0.87;83.48
19594;BME280;9944;48.240;16.478;2022-12-20T14:09:31;100757.09;;;-0.95;82.96
19594;BME280;9944;48.240;16.478;2022-12-20T14:13:35;100755.25;;;-0.97;82.76
19594;BME280;9944;48.240;16.478;2022-12-20T14:17:38;100765.59;;;-0.97;83.10
19594;BME280;9944;48.240;16.478;2022-12-20T14:21:45;100758.81;;;-0.95;83.43
19594;BME280;9944;48.240;16.478;2022-12-20T14:25:53;100743.25;;;-0.95;83.05
19594;BME280;9944;48.240;16.478;2022-12-20T14:29:58;100749.41;;;-0.93;83.21
19594;BME280;9944;48.240;16.478;2022-12-20T14:34:03;100752.09;;;-0.92;83.27
19594;BME280;9944;48.240;16.478;2022-12-20T14:38:20;100745.94;;;-0.94;83.24
19594;BME280;9944;48.240;16.478;2022-12-20T14:42:28;100750.22;;;-0.94;83.13
19594;BME280;9944;48.240;16.478;2022-12-20T14:46:34;100734.75;;;-0.93;83.04
19594;BME280;9944;48.240;16.478;2022-12-20T14:50:50;100731.38;;;-0.92;83.14
19594;BME280;9944;48.240;16.478;2022-12-20T14:54:57;100732.91;;;-0.95;83.13
19594;BME280;9944;48.240;16.478;2022-12-20T14:59:16;100744.03;;;-0.96;83.03
19594;BME280;9944;48.240;16.478;2022-12-20T15:03:20;100741.38;;;-0.98;83.07
19594;BME280;9944;48.240;16.478;2022-12-20T15:07:28;100729.31;;;-0.97;83.16
19594;BME280;9944;48.240;16.478;2022-12-20T15:11:34;100728.59;;;-0.95;83.15
19594;BME280;9944;48.240;16.478;2022-12-20T15:15:39;100724.38;;;-0.93;83.31
19594;BME280;9944;48.240;16.478;2022-12-20T15:19:42;100713.22;;;-0.92;83.21
19594;BME280;9944;48.240;16.478;2022-12-20T15:23:47;100715.72;;;-0.93;83.01
19594;BME280;9944;48.240;16.478;2022-12-20T15:27:52;100721.47;;;-0.99;83.01
19594;BME280;9944;48.240;16.478;2022-12-20T15:32:02;100742.19;;;-0.99;83.14
19594;BME280;9944;48.240;16.478;2022-12-20T15:36:08;100738.97;;;-0.95;83.48
19594;BME280;9944;48.240;16.478;2022-12-20T15:40:15;100750.31;;;-0.93;83.27
19594;BME280;9944;48.240;16.478;2022-12-20T15:44:20;100741.47;;;-0.96;83.13
19594;BME280;9944;48.240;16.478;2022-12-20T15:48:25;100747.38;;;-0.99;83.13
19594;BME280;9944;48.240;16.478;2022-12-20T15:52:28;100729.69;;;-1.06;83.09
19594;BME280;9944;48.240;16.478;2022-12-20T15:56:31;100732.88;;;-1.10;83.07
19594;BME280;9944;48.240;16.478;2022-12-20T16:00:38;100720.75;;;-1.11;83.38
19594;BME280;9944;48.240;16.478;2022-12-20T16:04:43;100710.53;;;-1.08;83.86
19594;BME280;9944;48.240;16.478;2022-12-20T16:08:46;100716.09;;;-1.02;84.09
19594;BME280;9944;48.240;16.478;2022-12-20T16:12:49;100715.53;;;-0.96;84.04
19594;BME280;9944;48.240;16.478;2022-12-20T16:16:52;100712.25;;;-0.94;84.08
19594;BME280;9944;48.240;16.478;2022-12-20T16:20:56;100690.69;;;-0.93;83.96
19594;BME280;9944;48.240;16.478;2022-12-20T16:24:59;100685.38;;;-0.96;83.82
19594;BME280;9944;48.240;16.478;2022-12-20T16:29:02;100674.44;;;-0.90;83.94
19594;BME280;9944;48.240;16.478;2022-12-20T16:33:05;100673.47;;;-0.92;84.01
19594;BME280;9944;48.240;16.478;2022-12-20T16:37:11;100672.91;;;-0.87;84.55
19594;BME280;9944;48.240;16.478;2022-12-20T16:41:16;100678.28;;;-0.83;84.25
19594;BME280;9944;48.240;16.478;2022-12-20T16:45:22;100679.97;;;-0.84;84.11
19594;BME280;9944;48.240;16.478;2022-12-20T16:49:25;100681.56;;;-0.86;84.20
19594;BME280;9944;48.240;16.478;2022-12-20T16:53:30;100675.31;;;-0.90;83.85
19594;BME280;9944;48.240;16.478;2022-12-20T16:57:53;100682.31;;;-0.89;84.07
19594;BME280;9944;48.240;16.478;2022-12-20T17:01:56;100692.81;;;-0.85;84.07
19594;BME280;9944;48.240;16.478;2022-12-20T17:05:59;100695.59;;;-0.82;84.11
19594;BME280;9944;48.240;16.478;2022-12-20T17:10:04;100696.44;;;-0.83;83.99
19594;BME280;9944;48.240;16.478;2022-12-20T17:14:13;100691.94;;;-0.86;83.70
19594;BME280;9944;48.240;16.478;2022-12-20T17:18:16;100691.25;;;-0.83;83.86
19594;BME280;9944;48.240;16.478;2022-12-20T17:22:20;100681.66;;;-0.84;83.96
19594;BME280;9944;48.240;16.478;2022-12-20T17:26:41;100675.94;;;-0.79;84.09
19594;BME280;9944;48.240;16.478;2022-12-20T17:30:44;100665.91;;;-0.73;84.14
19594;BME280;9944;48.240;16.478;2022-12-20T17:34:48;100664.94;;;-0.75;83.83
19594;BME280;9944;48.240;16.478;2022-12-20T17:38:52;100660.28;;;-0.80;83.71
19594;BME280;9944;48.240;16.478;2022-12-20T17:42:56;100659.06;;;-0.87;83.44
19594;BME280;9944;48.240;16.478;2022-12-20T17:47:00;100664.06;;;-0.90;83.52
19594;BME280;9944;48.240;16.478;2022-12-20T17:51:07;100666.50;;;-0.93;83.67
19594;BME280;9944;48.240;16.478;2022-12-20T17:55:17;100664.78;;;-0.93;83.67
19594;BME280;9944;48.240;16.478;2022-12-20T17:59:21;100666.41;;;-0.95;83.67
19594;BME280;9944;48.240;16.478;2022-12-20T18:03:26;100664.63;;;-0.96;83.77
19594;BME280;9944;48.240;16.478;2022-12-20T18:07:51;100670.88;;;-0.92;84.14
19594;BME280;9944;48.240;16.478;2022-12-20T18:11:54;100673.38;;;-0.94;83.71
19594;BME280;9944;48.240;16.478;2022-12-20T18:15:58;100677.84;;;-0.91;83.86
19594;BME280;9944;48.240;16.478;2022-12-20T18:20:07;100651.22;;;-0.89;84.00
19594;BME280;9944;48.240;16.478;2022-12-20T18:24:11;100642.59;;;-0.88;84.17
19594;BME280;9944;48.240;16.478;2022-12-20T18:28:14;100640.09;;;-0.86;84.07
19594;BME280;9944;48.240;16.478;2022-12-20T18:32:18;100654.69;;;-0.88;84.01
19594;BME280;9944;48.240;16.478;2022-12-20T18:36:23;100644.59;;;-0.83;84.18
19594;BME280;9944;48.240;16.478;2022-12-20T18:40:26;100622.94;;;-0.84;83.99
19594;BME280;9944;48.240;16.478;2022-12-20T18:44:29;100642.97;;;-0.81;84.05
19594;BME280;9944;48.240;16.478;2022-12-20T18:48:38;100635.97;;;-0.82;83.91
19594;BME280;9944;48.240;16.478;2022-12-20T18:52:41;100624.72;;;-0.83;83.74
19594;BME280;9944;48.240;16.478;2022-12-20T18:56:48;100607.94;;;-0.90;83.33
19594;BME280;9944;48.240;16.478;2022-12-20T19:00:55;100605.09;;;-0.94;83.55
19594;BME280;9944;48.240;16.478;2022-12-20T19:05:00;100607.63;;;-0.96;83.66
19594;BME280;9944;48.240;16.478;2022-12-20T19:09:05;100600.56;;;-0.98;83.61
19594;BME280;9944;48.240;16.478;2022-12-20T19:13:08;100601.44;;;-0.98;83.73
19594;BME280;9944;48.240;16.478;2022-12-20T19:17:11;100599.03;;;-0.95;83.98
19594;BME280;9944;48.240;16.478;2022-12-20T19:21:18;100586.72;;;-0.99;83.50
19594;BME280;9944;48.240;16.478;2022-12-20T19:25:22;100603.06;;;-1.00;83.59
19594;BME280;9944;48.240;16.478;2022-12-20T19:29:25;100585.09;;;-0.97;83.84
19594;BME280;9944;48.240;16.478;2022-12-20T19:33:28;100585.28;;;-0.94;83.78
19594;BME280;9944;48.240;16.478;2022-12-20T19:37:32;100585.38;;;-0.92;83.84
19594;BME280;9944;48.240;16.478;2022-12-20T19:41:38;100582.91;;;-0.89;83.81
19594;BME280;9944;48.240;16.478;2022-12-20T19:45:41;100559.44;;;-0.92;83.60
19594;BME280;9944;48.240;16.478;2022-12-20T19:49:44;100551.75;;;-0.91;83.60
19594;BME280;9944;48.240;16.478;2022-12-20T19:54:00;100544.59;;;-0.95;83.43
19594;BME280;9944;48.240;16.478;2022-12-20T19:58:03;100550.44;;;-0.99;83.38
19594;BME280;9944;48.240;16.478;2022-12-20T20:02:06;100552.94;;;-1.00;83.55
19594;BME280;9944;48.240;16.478;2022-12-20T20:06:09;100542.97;;;-1.09;83.29
19594;BME280;9944;48.240;16.478;2022-12-20T20:10:13;100534.22;;;-1.11;83.57
19594;BME280;9944;48.240;16.478;2022-12-20T20:14:16;100549.84;;;-1.10;83.63
19594;BME280;9944;48.240;16.478;2022-12-20T20:18:20;100561.91;;;-1.10;83.47
19594;BME280;9944;48.240;16.478;2022-12-20T20:22:24;100549.78;;;-1.11;83.40
19594;BME280;9944;48.240;16.478;2022-12-20T20:26:29;100533.41;;;-1.10;83.62
19594;BME280;9944;48.240;16.478;2022-12-20T20:30:32;100530.97;;;-1.07;83.44
19594;BME280;9944;48.240;16.478;2022-12-20T20:34:35;100537.13;;;-1.05;83.70
19594;BME280;9944;48.240;16.478;2022-12-20T20:38:38;100515.63;;;-1.04;83.69
19594;BME280;9944;48.240;16.478;2022-12-20T20:42:43;100533.75;;;-1.04;83.53
19594;BME280;9944;48.240;16.478;2022-12-20T20:46:47;100529.53;;;-1.02;83.68
19594;BME280;9944;48.240;16.478;2022-12-20T20:50:50;100522.56;;;-1.03;83.77
19594;BME280;9944;48.240;16.478;2022-12-20T20:54:53;100536.34;;;-1.04;83.60
19594;BME280;9944;48.240;16.478;2022-12-20T20:58:57;100536.06;;;-1.09;83.58
19594;BME280;9944;48.240;16.478;2022-12-20T21:03:08;100535.38;;;-1.06;83.50
19594;BME280;9944;48.240;16.478;2022-12-20T21:07:12;100539.03;;;-1.02;84.00
19594;BME280;9944;48.240;16.478;2022-12-20T21:11:15;100530.50;;;-1.00;84.05
19594;BME280;9944;48.240;16.478;2022-12-20T21:15:20;100515.63;;;-1.04;83.98
19594;BME280;9944;48.240;16.478;2022-12-20T21:19:26;100513.03;;;-1.04;83.81
19594;BME280;9944;48.240;16.478;2022-12-20T21:23:29;100503.53;;;-1.03;83.90
19594;BME280;9944;48.240;16.478;2022-12-20T21:27:32;100481.28;;;-1.00;84.04
19594;BME280;9944;48.240;16.478;2022-12-20T21:31:38;100502.09;;;-0.98;83.93
19594;BME280;9944;48.240;16.478;2022-12-20T21:35:42;100508.97;;;-0.99;84.01